» Metar & Tafor

22 April 2019
METAR
Pukul :
Isi :

METAR WAGI 242200Z 00000KT 6000 SCT011 25/24 Q1009 NOSIG=


30 Agustus 2018
TAFOR
Pukul :
Isi :
TAF WAGI 240500Z 2406/2418 11007KT 8000 BKN012 TEMPO 2407/2409 18008KT 3000 TSRA 
FEW012CB BKN012 BECMG 2410/2412 00000KT 7000=

Hal: << First | < Prev | 1 | Next > | Last >>